GB-0390 weather

Coleman Green Airstrip
England, United Kingdom

Public forecast

Using degrees Celsius for public forecast. Weather courtesy of forecast.io.

METAR (pilot weather report)

Closest report is London Luton Airport, 6.1 nm (11.2 km) NW. Retrieved 2019/03/26 14:20 UTC (35 minutes ago):

EGGW 261420Z AUTO 33011KT 9999 BKN038 12/02 Q1032

TAF (pilot weather forecast)

Closest forecast is London Luton Airport, 6.1 nm (11.2 km) NW. Retrieved 2019/03/26 12:00 UTC (3 hours ago):

TAF EGGW 261059Z 2612/2712 32009KT 9999 FEW040 PROB30 2704/2709 8000 BKN014